Time;durP1;ratioP1;P1;durP2;ratioP2;P2;SDS_P1;SDS_P2;PMS_P1;PMS_P2;Temp;Humidity;BMP_temperature;BMP_pressure;BME280_temperature;BME280_humidity;BME280_pressure;Samples;Min_cycle;Max_cycle;Signal;HPM_P1;HPM_P2
2024/01/11 00:00:37;;;;;;;;;;;;;;;-128.00;-1.00;-1.00;100529;1283;1002652;-33
2024/01/11 00:03:03;;;;;;;332.10;91.70;;;;;;;-128.00;-1.00;-1.00;100641;1283;1003297;-30
2024/01/11 00:05:28;;;;;;;;;;;;;;;-128.00;-1.00;-1.00;100504;1283;1057052;-32
2024/01/11 00:07:54;;;;;;;297.80;81.40;;;;;;;-128.00;-1.00;-1.00;100567;1282;1003736;-34
2024/01/11 00:10:20;;;;;;;319.90;88.00;;;;;;;-128.00;-1.00;-1.00;100539;1285;1044941;-32
2024/01/11 00:12:46;;;;;;;328.80;92.40;;;;;;;-128.00;-1.00;-1.00;100262;1285;1003908;-29
2024/01/11 00:15:11;;;;;;;;;;;;;;;-128.00;-1.00;-1.00;100509;1285;1003057;-32
2024/01/11 00:17:37;;;;;;;280.90;76.00;;;;;;;-128.00;-1.00;-1.00;100406;1283;1004789;-29
2024/01/11 00:20:03;;;;;;;291.50;77.70;;;;;;;-128.00;-1.00;-1.00;100382;1285;1004726;-32
2024/01/11 00:22:28;;;;;;;326.20;89.60;;;;;;;-128.00;-1.00;-1.00;100180;1285;1002916;-33
2024/01/11 00:24:54;;;;;;;262.80;73.00;;;;;;;-128.00;-1.00;-1.00;100470;1283;1004885;-32
2024/01/11 00:27:19;;;;;;;311.20;83.20;;;;;;;-128.00;-1.00;-1.00;100445;1282;1003218;-29
2024/01/11 00:29:45;;;;;;;345.30;94.70;;;;;;;-128.00;-1.00;-1.00;100534;1283;1003238;-31
2024/01/11 00:32:11;;;;;;;348.70;95.50;;;;;;;-128.00;-1.00;-1.00;100519;1283;1003468;-33
2024/01/11 00:34:37;;;;;;;340.00;93.60;;;;;;;-128.00;-1.00;-1.00;100581;1283;1003083;-33
2024/01/11 00:37:02;;;;;;;321.90;88.20;;;;;;;-128.00;-1.00;-1.00;100560;1281;1054511;-33
2024/01/11 00:39:29;;;;;;;261.30;76.50;;;;;;;-128.00;-1.00;-1.00;100500;1284;1003192;-33
2024/01/11 00:41:54;;;;;;;345.90;101.50;;;;;;;-128.00;-1.00;-1.00;100436;1283;1003632;-33
2024/01/11 00:44:20;;;;;;;307.00;86.10;;;;;;;-128.00;-1.00;-1.00;100541;1285;1002913;-30
2024/01/11 00:46:46;;;;;;;376.80;102.20;;;;;;;-128.00;-1.00;-1.00;100502;1283;1059069;-33
2024/01/11 00:49:11;;;;;;;369.00;103.30;;;;;;;-128.00;-1.00;-1.00;100432;1282;1004751;-29
2024/01/11 00:51:37;;;;;;;356.90;96.10;;;;;;;-128.00;-1.00;-1.00;100298;1285;1002959;-31
2024/01/11 00:54:03;;;;;;;388.90;106.50;;;;;;;-128.00;-1.00;-1.00;100546;1285;1003317;-31
2024/01/11 00:56:28;;;;;;;357.90;92.60;;;;;;;-128.00;-1.00;-1.00;100469;1283;1003206;-29
2024/01/11 00:58:54;;;;;;;361.60;94.40;;;;;;;-128.00;-1.00;-1.00;100537;1285;1002824;-31
2024/01/11 01:01:19;;;;;;;386.90;105.20;;;;;;;-128.00;-1.00;-1.00;100403;1283;1057957;-36
2024/01/11 01:03:45;;;;;;;346.80;94.50;;;;;;;-128.00;-1.00;-1.00;100509;1283;1003813;-33
2024/01/11 01:06:11;;;;;;;365.50;101.90;;;;;;;-128.00;-1.00;-1.00;100580;1285;1004372;-31
2024/01/11 01:08:36;;;;;;;355.80;92.80;;;;;;;-128.00;-1.00;-1.00;100533;1286;1003704;-29
2024/01/11 01:11:02;;;;;;;301.20;76.90;;;;;;;-128.00;-1.00;-1.00;100502;1285;1004743;-31
2024/01/11 01:13:28;;;;;;;263.00;70.10;;;;;;;-128.00;-1.00;-1.00;100639;1283;1013392;-29
2024/01/11 01:15:54;;;;;;;372.90;99.80;;;;;;;-128.00;-1.00;-1.00;100470;1283;1003221;-32
2024/01/11 01:18:20;;;;;;;389.60;106.50;;;;;;;-128.00;-1.00;-1.00;100390;1285;1003650;-30
2024/01/11 01:20:46;;;;;;;362.10;96.00;;;;;;;-128.00;-1.00;-1.00;100490;1282;1003855;-32
2024/01/11 01:23:11;;;;;;;337.20;93.90;;;;;;;-128.00;-1.00;-1.00;100443;1281;1002753;-29
2024/01/11 01:25:37;;;;;;;379.00;104.60;;;;;;;-128.00;-1.00;-1.00;100491;1285;1012236;-32
2024/01/11 01:28:03;;;;;;;376.10;101.20;;;;;;;-128.00;-1.00;-1.00;100542;1285;1003119;-31
2024/01/11 01:30:29;;;;;;;;;;;;;;;-128.00;-1.00;-1.00;100493;1283;1058567;-34
2024/01/11 01:32:54;;;;;;;378.50;104.80;;;;;;;-128.00;-1.00;-1.00;100484;1283;1003620;-29
2024/01/11 01:35:20;;;;;;;;;;;;;;;-128.00;-1.00;-1.00;100511;1282;1004990;-32
2024/01/11 01:37:45;;;;;;;339.30;85.30;;;;;;;-128.00;-1.00;-1.00;100565;1285;1003264;-29
2024/01/11 01:40:12;;;;;;;381.90;102.20;;;;;;;-128.00;-1.00;-1.00;100564;1282;1004102;-30
2024/01/11 01:42:43;;;;;;;352.00;93.80;;;;;;;-128.00;-1.00;-1.00;99866;1283;1054368;-31
2024/01/11 01:45:08;;;;;;;383.80;108.80;;;;;;;-128.00;-1.00;-1.00;100436;1283;1057729;-29
2024/01/11 01:47:34;;;;;;;364.80;99.30;;;;;;;-128.00;-1.00;-1.00;100426;1285;1003543;-33
2024/01/11 01:50:00;;;;;;;382.70;106.70;;;;;;;-128.00;-1.00;-1.00;100294;1282;1003272;-33
2024/01/11 01:52:25;;;;;;;394.10;105.60;;;;;;;-128.00;-1.00;-1.00;100602;1282;1059639;-30
2024/01/11 02:33:33;;;;;;;421.90;121.70;;;;;;;-12.80;98.60;100587.64;102974;1286;1002488;-31
2024/01/11 02:35:59;;;;;;;396.10;113.70;;;;;;;-12.70;98.45;100579.59;103030;1286;1002387;-31
2024/01/11 02:38:24;;;;;;;390.20;106.90;;;;;;;-12.65;98.52;100584.86;103937;1286;60494;-34
2024/01/11 02:40:50;;;;;;;355.00;91.90;;;;;;;-104.91;18.78;20115.83;101135;1282;1002919;-29
2024/01/11 02:43:15;;;;;;;371.70;104.80;;;;;;;-128.00;-1.00;-1.00;100514;1283;1002621;-29
2024/01/11 02:45:41;;;;;;;415.40;114.40;;;;;;;-128.00;-1.00;-1.00;100505;1282;1058226;-30
2024/01/11 02:48:07;;;;;;;356.80;99.20;;;;;;;-128.00;-1.00;-1.00;100459;1283;1005358;-30
2024/01/11 02:50:32;;;;;;;362.30;97.40;;;;;;;-128.00;-1.00;-1.00;100354;1283;1045166;-30
2024/01/11 02:52:58;;;;;;;370.20;98.10;;;;;;;-128.00;-1.00;-1.00;100375;1282;1003465;-30
2024/01/11 02:55:23;;;;;;;368.00;96.40;;;;;;;-128.00;-1.00;-1.00;100249;1283;1004990;-33
2024/01/11 02:57:49;;;;;;;377.50;103.60;;;;;;;-128.00;-1.00;-1.00;99735;1285;1003841;-31
2024/01/11 03:00:15;;;;;;;302.80;77.90;;;;;;;-128.00;-1.00;-1.00;100441;1285;1004875;-32
2024/01/11 03:02:40;;;;;;;;;;;;;;;-128.00;-1.00;-1.00;100451;1282;1059129;-31
2024/01/11 03:05:07;;;;;;;331.40;77.00;;;;;;;-128.00;-1.00;-1.00;100569;1283;1003531;-33
2024/01/11 03:07:33;;;;;;;;;;;;;;;-128.00;-1.00;-1.00;100455;1283;1003175;-32
2024/01/11 03:09:58;;;;;;;392.80;101.60;;;;;;;-128.00;-1.00;-1.00;100430;1283;1003795;-29
2024/01/11 03:12:25;;;;;;;374.90;99.70;;;;;;;-128.00;-1.00;-1.00;99654;1282;1004622;-29
2024/01/11 03:14:51;;;;;;;374.80;96.10;;;;;;;-128.00;-1.00;-1.00;100313;1282;1003113;-32
2024/01/11 03:17:17;;;;;;;;;;;;;;;-128.00;-1.00;-1.00;97442;1286;1003726;-30
2024/01/11 03:19:43;;;;;;;355.40;93.80;;;;;;;-128.00;-1.00;-1.00;100302;1284;1004605;-31
2024/01/11 03:22:09;;;;;;;326.60;83.70;;;;;;;-128.00;-1.00;-1.00;99664;1286;1043991;-31
2024/01/11 03:24:39;;;;;;;342.30;90.20;;;;;;;-128.00;-1.00;-1.00;99814;1283;1002969;-30
2024/01/11 03:27:05;;;;;;;378.60;104.50;;;;;;;-128.00;-1.00;-1.00;99622;1282;1054879;-30
2024/01/11 03:29:31;;;;;;;382.30;99.20;;;;;;;-128.00;-1.00;-1.00;100263;1283;1004604;-29
2024/01/11 03:31:57;;;;;;;395.40;104.60;;;;;;;-128.00;-1.00;-1.00;99989;1286;1005246;-32
2024/01/11 03:34:22;;;;;;;400.70;104.70;;;;;;;-128.00;-1.00;-1.00;100282;1285;1004706;-29
2024/01/11 03:36:48;;;;;;;387.40;99.30;;;;;;;-128.00;-1.00;-1.00;100372;1283;1058790;-29
2024/01/11 03:39:14;;;;;;;356.80;94.50;;;;;;;-128.00;-1.00;-1.00;100119;1286;1005066;-29
2024/01/11 03:41:44;;;;;;;370.90;99.10;;;;;;;-128.00;-1.00;-1.00;100129;1283;1005022;-33
2024/01/11 03:44:10;;;;;;;363.70;93.40;;;;;;;-128.00;-1.00;-1.00;98679;1285;1046202;-33
2024/01/11 03:46:36;;;;;;;;;;;;;;;-128.00;-1.00;-1.00;98825;1285;1004716;-33
2024/01/11 03:49:01;;;;;;;365.40;93.10;;;;;;;-128.00;-1.00;-1.00;100302;1283;1005406;-31
2024/01/11 03:51:27;;;;;;;388.60;100.60;;;;;;;-128.00;-1.00;-1.00;100359;1282;1003271;-33
2024/01/11 03:53:52;;;;;;;328.60;89.10;;;;;;;-128.00;-1.00;-1.00;100359;1282;1003086;-32
2024/01/11 03:56:18;;;;;;;345.00;92.60;;;;;;;-128.00;-1.00;-1.00;100305;1283;1045829;-29
2024/01/11 03:58:44;;;;;;;366.60;100.80;;;;;;;-128.00;-1.00;-1.00;100274;1282;1004251;-30
2024/01/11 04:01:10;;;;;;;357.10;92.50;;;;;;;-128.00;-1.00;-1.00;100280;1285;1003839;-31
2024/01/11 04:03:36;;;;;;;;;;;;;;;-128.00;-1.00;-1.00;100374;1282;1003538;-33
2024/01/11 04:06:03;;;;;;;371.10;104.10;;;;;;;-128.00;-1.00;-1.00;100218;1288;1044160;-33
2024/01/11 04:08:29;;;;;;;292.10;80.40;;;;;;;-128.00;-1.00;-1.00;99555;1282;1003798;-28
2024/01/11 04:10:54;;;;;;;360.40;90.80;;;;;;;-128.00;-1.00;-1.00;100268;1285;1004125;-33
2024/01/11 04:13:20;;;;;;;343.70;93.20;;;;;;;-128.00;-1.00;-1.00;100317;1282;1003175;-31
2024/01/11 04:15:46;;;;;;;338.40;93.20;;;;;;;-128.00;-1.00;-1.00;100172;1282;1004754;-30
2024/01/11 04:18:12;;;;;;;298.50;80.70;;;;;;;-128.00;-1.00;-1.00;98878;1282;1054866;-30
2024/01/11 04:20:38;;;;;;;359.30;100.50;;;;;;;-128.00;-1.00;-1.00;100307;1284;1003415;-32
2024/01/11 04:23:03;;;;;;;339.10;88.50;;;;;;;-128.00;-1.00;-1.00;100094;1286;1058420;-30
2024/01/11 04:25:30;;;;;;;374.00;98.60;;;;;;;-128.00;-1.00;-1.00;100064;1283;1004641;-33
2024/01/11 04:27:55;;;;;;;362.10;97.50;;;;;;;-128.00;-1.00;-1.00;100120;1282;1005644;-28
2024/01/11 04:30:21;;;;;;;372.10;97.10;;;;;;;-128.00;-1.00;-1.00;100322;1282;1004764;-28
2024/01/11 04:32:47;;;;;;;392.50;95.20;;;;;;;-128.00;-1.00;-1.00;100210;1281;1004524;-30
2024/01/11 04:35:12;;;;;;;367.00;98.10;;;;;;;-128.00;-1.00;-1.00;100236;1283;1004093;-35
2024/01/11 04:37:38;;;;;;;333.60;88.90;;;;;;;-128.00;-1.00;-1.00;100206;1285;1046032;-30
2024/01/11 04:40:05;;;;;;;370.20;101.10;;;;;;;-128.00;-1.00;-1.00;100227;1283;1004451;-32
2024/01/11 04:42:30;;;;;;;376.00;101.20;;;;;;;-128.00;-1.00;-1.00;100197;1283;1004073;-30
2024/01/11 04:44:56;;;;;;;368.70;99.30;;;;;;;-128.00;-1.00;-1.00;100301;1282;1004611;-31
2024/01/11 04:47:21;;;;;;;384.70;99.50;;;;;;;-128.00;-1.00;-1.00;100291;1283;1003611;-29
2024/01/11 04:49:48;;;;;;;378.20;102.50;;;;;;;-128.00;-1.00;-1.00;100226;1285;1004918;-29
2024/01/11 04:52:14;;;;;;;328.50;91.70;;;;;;;-128.00;-1.00;-1.00;100060;1283;1004492;-30
2024/01/11 04:54:40;;;;;;;295.00;76.60;;;;;;;-128.00;-1.00;-1.00;100290;1285;1056595;-29
2024/01/11 04:57:05;;;;;;;315.90;82.60;;;;;;;-128.00;-1.00;-1.00;100217;1283;1004193;-31
2024/01/11 04:59:31;;;;;;;374.90;100.30;;;;;;;-128.00;-1.00;-1.00;100185;1285;1004731;-31
2024/01/11 05:01:56;;;;;;;357.10;91.40;;;;;;;-128.00;-1.00;-1.00;100228;1282;1004633;-31
2024/01/11 05:04:22;;;;;;;364.80;104.20;;;;;;;-128.00;-1.00;-1.00;100037;1283;1056147;-30
2024/01/11 05:06:47;;;;;;;367.10;93.80;;;;;;;-128.00;-1.00;-1.00;100159;1283;1005297;-32
2024/01/11 05:09:14;;;;;;;383.20;99.90;;;;;;;-128.00;-1.00;-1.00;99601;1283;2003095;-32
2024/01/11 05:11:40;;;;;;;334.90;93.00;;;;;;;-128.00;-1.00;-1.00;100267;1285;1045367;-33
2024/01/11 05:14:05;;;;;;;291.40;83.20;;;;;;;-128.00;-1.00;-1.00;99610;1285;1005305;-30
2024/01/11 05:16:31;;;;;;;378.30;100.70;;;;;;;-128.00;-1.00;-1.00;100146;1283;1058850;-33
2024/01/11 05:18:57;;;;;;;;;;;;;;;-128.00;-1.00;-1.00;100202;1283;1004674;-33
2024/01/11 05:21:23;;;;;;;278.60;72.10;;;;;;;-128.00;-1.00;-1.00;100068;1286;1004437;-33
2024/01/11 05:23:48;;;;;;;299.10;75.40;;;;;;;-128.00;-1.00;-1.00;100286;1283;1060102;-30
2024/01/11 05:26:15;;;;;;;241.40;72.30;;;;;;;-128.00;-1.00;-1.00;100409;1283;1004466;-32
2024/01/11 05:28:40;;;;;;;257.90;81.00;;;;;;;-128.00;-1.00;-1.00;100209;1283;1003819;-30
2024/01/11 05:31:10;;;;;;;246.30;70.00;;;;;;;-128.00;-1.00;-1.00;100270;1283;1005056;-30
2024/01/11 05:33:36;;;;;;;176.30;56.20;;;;;;;-128.00;-1.00;-1.00;100199;1283;1046777;-31
2024/01/11 05:36:02;;;;;;;224.50;71.00;;;;;;;-128.00;-1.00;-1.00;100160;1283;1003829;-31
2024/01/11 05:38:28;;;;;;;221.50;67.50;;;;;;;-128.00;-1.00;-1.00;100246;1281;1005011;-34
2024/01/11 05:40:54;;;;;;;;;;;;;;;-128.00;-1.00;-1.00;100237;1283;1004528;-31
2024/01/11 05:43:19;;;;;;;180.10;53.90;;;;;;;-128.00;-1.00;-1.00;100270;1285;1004182;-30
2024/01/11 05:45:45;;;;;;;240.60;74.20;;;;;;;-128.00;-1.00;-1.00;100269;1283;1004347;-31
2024/01/11 05:48:11;;;;;;;201.50;64.20;;;;;;;-128.00;-1.00;-1.00;100235;1283;1003718;-30
2024/01/11 05:50:36;;;;;;;;;;;;;;;-128.00;-1.00;-1.00;100264;1285;1004446;-32
2024/01/11 05:53:03;;;;;;;238.30;63.30;;;;;;;-128.00;-1.00;-1.00;100271;1282;1005264;-29
2024/01/11 05:55:28;;;;;;;243.30;64.80;;;;;;;-128.00;-1.00;-1.00;99641;1283;1046365;-32
2024/01/11 05:57:54;;;;;;;124.10;35.90;;;;;;;-128.00;-1.00;-1.00;99029;1283;1003535;-31
2024/01/11 06:00:20;;;;;;;265.70;69.50;;;;;;;-128.00;-1.00;-1.00;100321;1282;1002707;-29
2024/01/11 06:02:46;;;;;;;;;;;;;;;-128.00;-1.00;-1.00;100339;1283;1013390;-31
2024/01/11 06:05:12;;;;;;;186.00;61.10;;;;;;;-128.00;-1.00;-1.00;99639;1284;1004072;-31
2024/01/11 06:07:38;;;;;;;182.90;59.80;;;;;;;-128.00;-1.00;-1.00;99698;1282;1058397;-31
2024/01/11 06:10:05;;;;;;;194.40;61.50;;;;;;;-128.00;-1.00;-1.00;99595;1284;1002753;-31
2024/01/11 06:12:31;;;;;;;163.10;50.60;;;;;;;-128.00;-1.00;-1.00;100262;1283;1004403;-32
2024/01/11 06:14:57;;;;;;;173.20;53.70;;;;;;;-128.00;-1.00;-1.00;100256;1281;1004799;-31
2024/01/11 06:17:23;;;;;;;262.50;71.90;;;;;;;-128.00;-1.00;-1.00;99651;1283;1004298;-31
2024/01/11 06:19:49;;;;;;;220.70;59.90;;;;;;;-128.00;-1.00;-1.00;100291;1282;1003344;-30
2024/01/11 06:22:15;;;;;;;;;;;;;;;-128.00;-1.00;-1.00;100289;1283;1055556;-30
2024/01/11 06:24:40;;;;;;;198.40;57.70;;;;;;;-128.00;-1.00;-1.00;100454;1283;1005195;-30
2024/01/11 06:27:06;;;;;;;225.00;63.90;;;;;;;-128.00;-1.00;-1.00;100399;1285;1004848;-30
2024/01/11 06:29:31;;;;;;;217.90;62.20;;;;;;;-128.00;-1.00;-1.00;100538;1283;1004443;-32
2024/01/11 06:31:57;;;;;;;244.00;65.80;;;;;;;-128.00;-1.00;-1.00;100348;1283;1003722;-30
2024/01/11 06:34:22;;;;;;;217.80;61.70;;;;;;;-128.00;-1.00;-1.00;100382;1282;1005051;-32
2024/01/11 06:36:48;;;;;;;172.70;54.20;;;;;;;-128.00;-1.00;-1.00;100333;1283;1038508;-36
2024/01/11 06:39:13;;;;;;;177.50;52.50;;;;;;;-128.00;-1.00;-1.00;100446;1285;1003336;-30
2024/01/11 06:41:39;;;;;;;225.50;73.90;;;;;;;-128.00;-1.00;-1.00;100493;1282;1056951;-33
2024/01/11 06:44:05;;;;;;;248.10;71.30;;;;;;;-128.00;-1.00;-1.00;100263;1285;1004555;-30
2024/01/11 06:46:30;;;;;;;186.50;67.00;;;;;;;-128.00;-1.00;-1.00;100024;1283;1004350;-30
2024/01/11 06:48:56;;;;;;;227.20;76.10;;;;;;;-128.00;-1.00;-1.00;100179;1283;1004120;-30
2024/01/11 06:51:22;;;;;;;;;;;;;;;-128.00;-1.00;-1.00;100249;1283;1004130;-32
2024/01/11 06:53:47;;;;;;;222.20;89.10;;;;;;;-128.00;-1.00;-1.00;100253;1283;1003212;-29
2024/01/11 06:56:17;;;;;;;213.40;60.50;;;;;;;-128.00;-1.00;-1.00;100270;1282;1003466;-32
2024/01/11 06:58:43;;;;;;;247.40;66.50;;;;;;;-128.00;-1.00;-1.00;100219;1283;1043756;-29
2024/01/11 07:01:09;;;;;;;191.10;68.30;;;;;;;-128.00;-1.00;-1.00;100220;1283;1003813;-30
2024/01/11 07:03:35;;;;;;;;;;;;;;;-128.00;-1.00;-1.00;100354;1285;1003470;-32
2024/01/11 07:06:01;;;;;;;235.60;78.40;;;;;;;-128.00;-1.00;-1.00;99059;1283;1003001;-43
2024/01/11 07:08:26;;;;;;;212.10;66.20;;;;;;;-128.00;-1.00;-1.00;100510;1283;1012897;-34
2024/01/11 07:10:52;;;;;;;218.80;64.40;;;;;;;-128.00;-1.00;-1.00;100329;1283;1003092;-32
2024/01/11 07:13:17;;;;;;;215.40;77.00;;;;;;;-128.00;-1.00;-1.00;100432;1283;1003691;-31
2024/01/11 07:15:43;;;;;;;122.70;45.40;;;;;;;-128.00;-1.00;-1.00;100250;1281;1003167;-31
2024/01/11 07:18:09;;;;;;;232.70;80.40;;;;;;;-128.00;-1.00;-1.00;100215;1285;1003631;-32
2024/01/11 07:20:34;;;;;;;191.90;58.00;;;;;;;-128.00;-1.00;-1.00;100182;1283;1004449;-29
2024/01/11 07:23:00;;;;;;;175.10;58.80;;;;;;;-128.00;-1.00;-1.00;100306;1283;1047290;-29
2024/01/11 07:25:26;;;;;;;;;;;;;;;-128.00;-1.00;-1.00;100315;1283;1004698;-31
2024/01/11 07:27:51;;;;;;;201.10;63.70;;;;;;;-128.00;-1.00;-1.00;100405;1283;1004415;-31
2024/01/11 07:30:21;;;;;;;215.10;67.00;;;;;;;-128.00;-1.00;-1.00;100174;1283;1014302;-29
2024/01/11 07:32:46;;;;;;;197.60;61.50;;;;;;;-128.00;-1.00;-1.00;100255;1285;1046648;-29
2024/01/11 07:35:13;;;;;;;222.10;62.30;;;;;;;-128.00;-1.00;-1.00;100132;1281;1004495;-30
2024/01/11 07:37:39;;;;;;;223.70;80.40;;;;;;;-128.00;-1.00;-1.00;100100;1282;1056411;-30
2024/01/11 07:40:09;;;;;;;206.60;60.00;;;;;;;-128.00;-1.00;-1.00;100191;1280;1005216;-32
2024/01/11 07:42:37;;;;;;;150.50;45.80;;;;;;;-128.00;-1.00;-1.00;100196;1283;1013230;-30
2024/01/11 07:45:03;;;;;;;220.30;66.10;;;;;;;-128.00;-1.00;-1.00;100214;1285;1005210;-31
2024/01/11 07:47:28;;;;;;;;;;;;;;;-128.00;-1.00;-1.00;100453;1285;1004338;-29
2024/01/11 07:49:54;;;;;;;194.10;54.30;;;;;;;-128.00;-1.00;-1.00;100054;1282;1004857;-29
2024/01/11 07:52:21;;;;;;;241.20;69.00;;;;;;;-128.00;-1.00;-1.00;100122;1281;1059044;-30
2024/01/11 07:54:46;;;;;;;203.30;61.40;;;;;;;-128.00;-1.00;-1.00;100211;1283;1004254;-32
2024/01/11 07:57:12;;;;;;;204.10;57.20;;;;;;;-128.00;-1.00;-1.00;100262;1283;1004668;-32
2024/01/11 07:59:38;;;;;;;175.20;54.20;;;;;;;-128.00;-1.00;-1.00;100332;1283;1004609;-31
2024/01/11 08:02:03;;;;;;;154.20;46.70;;;;;;;-128.00;-1.00;-1.00;99016;1283;1055104;-30
2024/01/11 08:04:29;;;;;;;175.10;55.30;;;;;;;-128.00;-1.00;-1.00;100403;1283;1003630;-33
2024/01/11 08:06:55;;;;;;;159.00;58.40;;;;;;;-128.00;-1.00;-1.00;100357;1281;1002874;-31
2024/01/11 08:09:21;;;;;;;126.80;47.90;;;;;;;-128.00;-1.00;-1.00;100241;1281;1047520;-29
2024/01/11 08:11:47;;;;;;;169.70;58.50;;;;;;;-128.00;-1.00;-1.00;100225;1283;1003617;-32
2024/01/11 08:14:14;;;;;;;123.60;39.00;;;;;;;-128.00;-1.00;-1.00;100264;1283;1004253;-31
2024/01/11 08:16:39;;;;;;;149.00;55.60;;;;;;;-128.00;-1.00;-1.00;99460;1283;1004341;-29
2024/01/11 08:19:05;;;;;;;174.20;55.50;;;;;;;-128.00;-1.00;-1.00;100278;1283;1004088;-32
2024/01/11 08:21:31;;;;;;;142.50;51.90;;;;;;;-128.00;-1.00;-1.00;100213;1282;1047211;-29
2024/01/11 08:23:57;;;;;;;172.80;60.60;;;;;;;-128.00;-1.00;-1.00;99538;1283;1003964;-30
2024/01/11 08:26:22;;;;;;;137.80;54.70;;;;;;;-128.00;-1.00;-1.00;100288;1283;1004668;-30
2024/01/11 08:28:48;;;;;;;163.30;57.90;;;;;;;-128.00;-1.00;-1.00;100218;1283;1014040;-30
2024/01/11 08:31:13;;;;;;;130.50;50.10;;;;;;;-128.00;-1.00;-1.00;100141;1283;1004793;-33
2024/01/11 08:33:39;;;;;;;138.10;53.10;;;;;;;-128.00;-1.00;-1.00;100248;1282;1005315;-30
2024/01/11 08:36:06;;;;;;;123.30;48.10;;;;;;;-128.00;-1.00;-1.00;100043;1287;1058382;-31
2024/01/11 08:38:32;;;;;;;194.60;52.20;;;;;;;-128.00;-1.00;-1.00;100145;1281;1004434;-32
2024/01/11 08:40:58;;;;;;;175.50;55.80;;;;;;;-128.00;-1.00;-1.00;100215;1282;1004568;-30
2024/01/11 08:43:26;;;;;;;95.10;33.90;;;;;;;-128.00;-1.00;-1.00;100286;1283;1004637;-32
2024/01/11 08:45:51;;;;;;;144.50;55.20;;;;;;;-128.00;-1.00;-1.00;100310;1285;1003690;-31
2024/01/11 08:48:17;;;;;;;141.90;57.10;;;;;;;-128.00;-1.00;-1.00;100276;1282;1004459;-32
2024/01/11 08:50:43;;;;;;;88.20;30.20;;;;;;;-128.00;-1.00;-1.00;100192;1282;1059104;-33
2024/01/11 08:53:08;;;;;;;92.20;32.70;;;;;;;-128.00;-1.00;-1.00;100186;1283;1005351;-30
2024/01/11 08:55:34;;;;;;;121.40;43.70;;;;;;;-128.00;-1.00;-1.00;100180;1285;1004452;-32
2024/01/11 08:57:59;;;;;;;135.60;50.10;;;;;;;-128.00;-1.00;-1.00;100005;1283;1004573;-29
2024/01/11 09:00:26;;;;;;;143.70;44.80;;;;;;;-128.00;-1.00;-1.00;100039;1283;1005426;-30
2024/01/11 09:02:52;;;;;;;135.80;54.10;;;;;;;-128.00;-1.00;-1.00;100121;1283;1004349;-32
2024/01/11 09:05:18;;;;;;;131.30;49.60;;;;;;;-128.00;-1.00;-1.00;100231;1282;1005428;-30
2024/01/11 09:07:43;;;;;;;104.20;36.90;;;;;;;-128.00;-1.00;-1.00;100282;1282;1004821;-32
2024/01/11 09:10:10;;;;;;;106.80;35.30;;;;;;;-128.00;-1.00;-1.00;100251;1282;1061153;-30
2024/01/11 09:12:36;;;;;;;121.70;37.10;;;;;;;-128.00;-1.00;-1.00;100217;1281;1004317;-31
2024/01/11 09:15:03;;;;;;;93.00;38.30;;;;;;;-128.00;-1.00;-1.00;100221;1283;1004985;-32
2024/01/11 09:17:28;;;;;;;102.40;37.30;;;;;;;-128.00;-1.00;-1.00;100343;1283;1004783;-29
2024/01/11 09:19:54;;;;;;;111.30;42.20;;;;;;;-128.00;-1.00;-1.00;100062;1283;1004764;-32
2024/01/11 09:22:19;;;;;;;96.50;31.20;;;;;;;-128.00;-1.00;-1.00;100179;1282;1060323;-30
2024/01/11 09:24:45;;;;;;;76.90;29.30;;;;;;;-128.00;-1.00;-1.00;100205;1282;1005129;-30
2024/01/11 09:27:10;;;;;;;100.80;32.60;;;;;;;-128.00;-1.00;-1.00;100226;1283;1004980;-32
2024/01/11 09:29:36;;;;;;;96.70;35.10;;;;;;;-128.00;-1.00;-1.00;100156;1283;1004061;-30
2024/01/11 09:32:02;;;;;;;107.10;37.20;;;;;;;-128.00;-1.00;-1.00;100176;1282;1060835;-33
2024/01/11 09:34:27;;;;;;;68.30;24.30;;;;;;;-128.00;-1.00;-1.00;100205;1281;1005335;-32
2024/01/11 09:36:53;;;;;;;81.60;27.30;;;;;;;-128.00;-1.00;-1.00;100168;1283;1004162;-31
2024/01/11 09:39:19;;;;;;;87.90;29.30;;;;;;;-128.00;-1.00;-1.00;100088;1285;1045574;-31
2024/01/11 09:41:51;;;;;;;71.10;28.30;;;;;;;-128.00;-1.00;-1.00;100220;1283;1004541;-33
2024/01/11 09:44:18;;;;;;;60.80;21.60;;;;;;;-128.00;-1.00;-1.00;100088;1282;1061486;-33
2024/01/11 09:46:43;;;;;;;73.30;27.10;;;;;;;-128.00;-1.00;-1.00;100276;1282;1004314;-32
2024/01/11 09:49:09;;;;;;;72.80;24.60;;;;;;;-128.00;-1.00;-1.00;100216;1282;1003955;-31
2024/01/11 09:51:34;;;;;;;82.90;26.40;;;;;;;-128.00;-1.00;-1.00;100092;1285;1005031;-29
2024/01/11 09:54:00;;;;;;;91.20;23.90;;;;;;;-128.00;-1.00;-1.00;100208;1283;1004682;-31
2024/01/11 09:56:27;;;;;;;79.20;23.30;;;;;;;-128.00;-1.00;-1.00;100160;1283;1004765;-32
2024/01/11 09:58:52;;;;;;;68.20;27.10;;;;;;;-128.00;-1.00;-1.00;100139;1283;1004628;-29
2024/01/11 10:01:18;;;;;;;70.80;25.00;;;;;;;-128.00;-1.00;-1.00;100049;1283;1004366;-32
2024/01/11 10:03:46;;;;;;;56.30;20.40;;;;;;;-128.00;-1.00;-1.00;100197;1285;1004354;-31
2024/01/11 10:06:11;;;;;;;68.40;28.90;;;;;;;-128.00;-1.00;-1.00;100271;1285;1063524;-31
2024/01/11 10:08:37;;;;;;;58.00;25.30;;;;;;;-128.00;-1.00;-1.00;100176;1282;1004256;-31
2024/01/11 10:11:23;;;;;;;69.50;24.20;;;;;;;-128.00;-1.00;-1.00;100160;1283;1061003;-29
2024/01/11 10:13:48;;;;;;;76.10;25.30;;;;;;;-128.00;-1.00;-1.00;100167;1283;1005220;-31
2024/01/11 10:16:15;;;;;;;59.00;20.70;;;;;;;-128.00;-1.00;-1.00;100197;1285;1005415;-29
2024/01/11 10:18:41;;;;;;;64.40;21.40;;;;;;;-128.00;-1.00;-1.00;100199;1282;1060553;-30
2024/01/11 10:21:09;;;;;;;53.70;20.50;;;;;;;-128.00;-1.00;-1.00;100222;1283;1004000;-31
2024/01/11 10:23:35;;;;;;;63.80;21.70;;;;;;;-128.00;-1.00;-1.00;100320;1283;1005424;-30
2024/01/11 10:26:02;;;;;;;50.80;19.30;;;;;;;-128.00;-1.00;-1.00;100269;1282;1004652;-33
2024/01/11 10:28:28;;;;;;;65.00;23.00;;;;;;;-128.00;-1.00;-1.00;100278;1285;1004215;-33
2024/01/11 10:30:54;;;;;;;;;;;;;;;-128.00;-1.00;-1.00;100239;1282;1005230;-31
2024/01/11 10:33:21;;;;;;;68.50;22.00;;;;;;;-128.00;-1.00;-1.00;100296;1282;1005147;-32
2024/01/11 10:35:48;;;;;;;55.30;21.00;;;;;;;-128.00;-1.00;-1.00;100265;1283;1004730;-32
2024/01/11 10:38:14;;;;;;;59.50;21.50;;;;;;;-128.00;-1.00;-1.00;100292;1283;1004194;-30
2024/01/11 10:40:40;;;;;;;57.70;20.20;;;;;;;-128.00;-1.00;-1.00;100083;1285;1005209;-31
2024/01/11 10:43:06;;;;;;;57.90;21.10;;;;;;;-128.00;-1.00;-1.00;100150;1285;1005390;-32
2024/01/11 10:45:38;;;;;;;60.30;22.70;;;;;;;-128.00;-1.00;-1.00;100288;1283;1004694;-34
2024/01/11 10:48:07;;;;;;;61.00;24.60;;;;;;;-128.00;-1.00;-1.00;100262;1281;1057018;-32
2024/01/11 10:50:39;;;;;;;64.90;23.70;;;;;;;-128.00;-1.00;-1.00;100022;1282;1059258;-32
2024/01/11 10:53:24;;;;;;;61.00;25.10;;;;;;;-128.00;-1.00;-1.00;100152;1283;1014256;-30
2024/01/11 10:55:50;;;;;;;58.90;21.60;;;;;;;-128.00;-1.00;-1.00;100228;1283;1043834;-32
2024/01/11 10:58:15;;;;;;;;;;;;;;;-128.00;-1.00;-1.00;100215;1283;1004663;-30
2024/01/11 11:00:41;;;;;;;64.40;21.90;;;;;;;-128.00;-1.00;-1.00;100267;1282;1004442;-33
2024/01/11 11:03:06;;;;;;;61.10;22.60;;;;;;;-128.00;-1.00;-1.00;100219;1282;1005476;-30
2024/01/11 11:05:35;;;;;;;62.40;22.90;;;;;;;-128.00;-1.00;-1.00;100227;1283;1005213;-32
2024/01/11 11:08:01;;;;;;;66.30;22.30;;;;;;;-128.00;-1.00;-1.00;100430;1285;1003439;-33
2024/01/11 11:10:27;;;;;;;68.40;23.20;;;;;;;-128.00;-1.00;-1.00;100223;1283;1004734;-31
2024/01/11 11:12:54;;;;;;;60.10;22.60;;;;;;;-128.00;-1.00;-1.00;100309;1283;1004519;-31
2024/01/11 11:15:19;;;;;;;;;;;;;;;-128.00;-1.00;-1.00;100288;1285;1005513;-32
2024/01/11 11:17:46;;;;;;;64.90;23.90;;;;;;;-128.00;-1.00;-1.00;100219;1283;1004112;-32
2024/01/11 11:20:11;;;;;;;58.40;22.40;;;;;;;-128.00;-1.00;-1.00;100251;1283;1044823;-31
2024/01/11 11:22:37;;;;;;;49.90;20.30;;;;;;;-128.00;-1.00;-1.00;100318;1281;1004413;-33
2024/01/11 11:25:05;;;;;;;66.50;23.10;;;;;;;-128.00;-1.00;-1.00;100288;1285;1004315;-32
2024/01/11 11:27:31;;;;;;;70.40;22.50;;;;;;;-128.00;-1.00;-1.00;100186;1283;1059583;-32
2024/01/11 11:29:56;;;;;;;59.40;21.60;;;;;;;-128.00;-1.00;-1.00;100238;1282;1004605;-31
2024/01/11 11:32:35;;;;;;;63.00;21.20;;;;;;;-128.00;-1.00;-1.00;100273;1282;1004377;-31
2024/01/11 11:35:00;;;;;;;68.20;22.70;;;;;;;-128.00;-1.00;-1.00;100282;1283;1061297;-31